Pagrindinis puslapis
METAR-TAF:

METAR-TAF

Oro uostai :

Kopenhaga, Danija

platuma: 55-37N, ilguma: 012-39E, Aukštis: 5 m

Dabartinis oras

Ataskaita buvo paskelbta 39 minutes, ne 05:50 UTC
Vėjas 10 kt iš Vakarų/Šiaurės Vakarų
Temperatūra 16°C
Drėgmė 82%
Slėgis 1016 hPa
Matomumas 10 km arba daugiau
Su prošvaistėmis ne aukštis 1600 ft

METAR: EKCH 200550Z 30010KT 9999 BKN016 16/13 Q1016 TEMPO BKN012

Laikas: 08:29 (06:29 UTC)

Prognozė

Ataskaita buvo paskelbta 1 valandą ir 22 minutes, ne 05:07 UTC
Prognozė galioja nuo 20 metu 06 UTC su 21 metu 06 UTC
Vėjas 8 kt iš Vakarų/Šiaurės Vakarų
Matomumas 10 km arba daugiau
Su prošvaistėmis ne aukštis 1200 ft
Tapsmas
nuo 20 metu 06 UTC su 20 metu 09 UTC
Išsisklaidę debesys ne aukštis 2000 ft
Laikinai
nuo 21 metu 02 UTC su 21 metu 06 UTC
Su prošvaistėmis ne aukštis 1200 ft
lietus

TAF: EKCH 200507Z 2006/2106 29008KT 9999 BKN012 BECMG 2006/2009 SCT020 TEMPO 2102/2106 RA BKN012

Orai ataskaitas ir orų prognozės (METAR, TAF).

turimą stotys yra geltonos ir raudonos taškus žemėlapyje.

Perkelti pele per norėdami pamatyti stoties vardą.

Tada spustelėkite, norėdami matyti oro stebėjimo ir prognozės.

Norėdami pakeisti žemėlapį: spustelėkite ant žalios mygtukų su juodo kryžiaus žemyn,; žalią mygtuką su brūkšneliu, jei norite nutolinti; arba žalių rodyklių gretimoms žemėlapius.


METAR-TAF: